Annapolis, WA

12:44 AM PST on November 24, 2014 (GMT -0800)
Strawberry Hill | Change Station
CLOSE
Current Station
Personal Weather Station
Location: Port Orchard, WA
Elevation: 340 ft
Nearby Weather Stations

Elev 340 ft 47.48 °N, 122.61 °W | Updated 4 minutes ago

Partly Cloudy
Partly Cloudy
38.5 °F
Feels Like 38 °F
N
0.0
Wind Variable Wind from SE
Gusts 0.0 mph

Today
High -- | Low -- °F
--% Chance of Precip.
Yesterday
High -- | Low -- °F
Precip. -- in
7:28 AM 4:25 PM
Waxing Crescent, 4% visible
Pressure 30.38 in
Visibility 8.0 miles
Clouds Few 700 ft
Windchill 38 °F
Dew Point 38 °F
Humidity 100%
Rainfall 0.00 in
Snow Depth Not available.
UV 0 out of 12
Pollen .10 out of 12
Air Quality Not available.
Flu Activity Not available.
METAR KPWT 240835Z AUTO 00000KT 8SM FEW007 02/01 A3038 RMK AO1

More Conditions Fewer Conditions

Pressure 30.38 in
Visibility 8.0 miles
Clouds Few 700 ft
Windchill 38 °F
Dew Point 38 °F
Humidity 100%
Rainfall 0.00 in
Snow Depth Not available.
UV 0 out of 12
Pollen .10 out of 12
Air Quality Not available.
Flu Activity Not available.
METAR KPWT 240835Z AUTO 00000KT 8SM FEW007 02/01 A3038 RMK AO1

More Conditions Fewer Conditions

10-Day Weather Forecast

Almanac

Astronomy

Nov. 24, 2014 Rise Set
Actual Time
Civil Twilight
Nautical Twilight
Astronomical Twilight
Moon
Length of Visible Light
Length of Day
Tomorrow will be .
, % of the Moon is Illuminated

Today's Extremes

State Highs State Lows

Community

WunderPhotos

Upload Photos

1,773,295 photos uploaded!

WunderBlogs® & News

Nearby

Air Quality

  Air Quality AQ Index Pollutant
Not available.

Snow Depth

Station Depth Elevation

Earthquake Activity

City Distance Mag. Time & Date
Minimum magnitude displayed is 2.5.

Coastal Water Temperatures

Place Temperature

Nearby Weather Stations